Schedule Details

Flight Number: ASX324X
Departure: Lodz (EPLL) at 21:30Z
Arrival: Gdansk im. Lecha Walesy (EPGD) at 22:30Z
Route: ADOXO N133 GRUDA Z95 OSLOG

Weather Information
EPLL 272300Z 10004KT CAVOK 18/12 Q1023
EPGD 272300Z 06004KT 020V110 CAVOK 16/15 Q1025

Schedule Frequency

Route Map